createdAt,value
2023-01-22T00:00:18.764Z,17.08
2023-01-22T00:00:50.423Z,17.09
2023-01-22T00:01:21.818Z,17.08
2023-01-22T00:01:53.221Z,17.06
2023-01-22T00:02:24.698Z,17.07
2023-01-22T00:02:56.114Z,17.07
2023-01-22T00:03:27.531Z,17.06
2023-01-22T00:03:58.981Z,17.05
2023-01-22T00:04:30.419Z,17.05
2023-01-22T00:05:01.862Z,17.05
2023-01-22T00:05:33.280Z,17.05
2023-01-22T00:06:04.699Z,17.04
2023-01-22T00:06:36.173Z,17.04
2023-01-22T00:07:07.573Z,17.02
2023-01-22T00:07:38.977Z,17.03
2023-01-22T00:08:10.398Z,17.02
2023-01-22T00:08:41.841Z,17.02
2023-01-22T00:09:13.252Z,17.01
2023-01-22T00:09:44.654Z,17.00
2023-01-22T00:10:16.327Z,17.00
2023-01-22T00:10:47.831Z,17.01
2023-01-22T00:11:19.245Z,16.99
2023-01-22T00:11:50.681Z,16.98
2023-01-22T00:12:22.092Z,16.98
2023-01-22T00:12:53.501Z,16.98
2023-01-22T00:13:24.933Z,16.98
2023-01-22T00:13:56.351Z,16.98
2023-01-22T00:14:27.806Z,16.96
2023-01-22T00:14:59.267Z,16.96
2023-01-22T00:15:30.681Z,16.95
2023-01-22T00:16:02.179Z,16.95
2023-01-22T00:16:33.726Z,16.94
2023-01-22T00:17:05.170Z,16.93
2023-01-22T00:17:36.581Z,16.92
2023-01-22T00:18:07.972Z,16.92
2023-01-22T00:18:39.367Z,16.90
2023-01-22T00:19:10.756Z,16.90
2023-01-22T00:19:42.157Z,16.91
2023-01-22T00:20:13.568Z,16.90
2023-01-22T00:20:44.961Z,16.90
2023-01-22T00:21:16.371Z,16.90
2023-01-22T00:21:47.767Z,16.89
2023-01-22T00:22:19.157Z,16.89
2023-01-22T00:22:50.565Z,16.89
2023-01-22T00:23:21.970Z,16.88
2023-01-22T00:23:53.396Z,16.88
2023-01-22T00:24:24.824Z,16.87
2023-01-22T00:24:56.226Z,16.89
2023-01-22T00:25:27.649Z,16.86
2023-01-22T00:25:59.102Z,16.87
2023-01-22T00:26:30.586Z,16.86
2023-01-22T00:27:01.989Z,16.86
2023-01-22T00:27:33.415Z,16.85
2023-01-22T00:28:04.841Z,16.84
2023-01-22T00:28:36.232Z,16.84
2023-01-22T00:29:07.628Z,16.84
2023-01-22T00:29:39.026Z,16.83
2023-01-22T00:30:10.433Z,16.84
2023-01-22T00:30:41.857Z,16.84
2023-01-22T00:31:13.375Z,16.84
2023-01-22T00:31:44.948Z,16.82
2023-01-22T00:32:16.546Z,16.83
2023-01-22T00:32:48.048Z,16.81
2023-01-22T00:33:19.452Z,16.81
2023-01-22T00:33:50.844Z,16.82
2023-01-22T00:34:22.250Z,16.82
2023-01-22T00:34:53.654Z,16.82
2023-01-22T00:35:25.054Z,16.82
2023-01-22T00:35:56.482Z,16.81
2023-01-22T00:36:27.893Z,16.81
2023-01-22T00:36:59.327Z,16.81
2023-01-22T00:37:30.730Z,16.80
2023-01-22T00:38:02.199Z,16.79
2023-01-22T00:38:33.632Z,16.78
2023-01-22T00:39:05.029Z,16.80
2023-01-22T00:39:36.427Z,16.79
2023-01-22T00:40:07.858Z,16.79
2023-01-22T00:40:39.262Z,16.77
2023-01-22T00:41:10.679Z,16.76
2023-01-22T00:41:42.112Z,16.76
2023-01-22T00:42:13.527Z,16.77
2023-01-22T00:42:44.922Z,16.74
2023-01-22T00:43:16.381Z,16.75
2023-01-22T00:43:47.775Z,16.74
2023-01-22T00:44:19.170Z,16.74
2023-01-22T00:44:50.587Z,16.74
2023-01-22T00:45:22.013Z,16.74
2023-01-22T00:45:53.421Z,16.73
2023-01-22T00:46:24.871Z,16.74
2023-01-22T00:46:56.281Z,16.72
2023-01-22T00:47:27.678Z,16.73
2023-01-22T00:47:59.074Z,16.72
2023-01-22T00:48:30.517Z,16.71
2023-01-22T00:49:01.935Z,16.72
2023-01-22T00:49:33.337Z,16.72
2023-01-22T00:50:04.746Z,16.71
2023-01-22T00:50:36.152Z,16.71
2023-01-22T00:51:07.596Z,16.71
2023-01-22T00:51:39.014Z,16.71
2023-01-22T00:52:10.433Z,16.71
2023-01-22T00:52:41.832Z,16.71
2023-01-22T00:53:13.234Z,16.71
2023-01-22T00:53:44.681Z,16.70
2023-01-22T00:54:16.091Z,16.70
2023-01-22T00:54:47.500Z,16.70
2023-01-22T00:55:18.916Z,16.70
2023-01-22T00:55:50.344Z,16.70
2023-01-22T00:56:21.739Z,16.70
2023-01-22T00:56:53.143Z,16.69
2023-01-22T00:57:24.557Z,16.69
2023-01-22T00:57:55.960Z,16.68
2023-01-22T00:58:27.394Z,16.67
2023-01-22T00:58:58.795Z,16.67
2023-01-22T00:59:30.197Z,16.66
2023-01-22T01:00:01.582Z,16.67
2023-01-22T01:00:33.038Z,16.67
2023-01-22T01:01:04.577Z,16.67
2023-01-22T01:01:36.064Z,16.66
2023-01-22T01:02:07.585Z,16.65
2023-01-22T01:02:38.996Z,16.65
2023-01-22T01:03:10.399Z,16.65
2023-01-22T01:03:41.846Z,16.65
2023-01-22T01:04:13.254Z,16.64
2023-01-22T01:04:44.655Z,16.64
2023-01-22T01:05:16.053Z,16.63
2023-01-22T01:05:47.447Z,16.63
2023-01-22T01:06:18.853Z,16.61
2023-01-22T01:06:50.397Z,16.62
2023-01-22T01:07:21.791Z,16.62
2023-01-22T01:07:53.213Z,16.62
2023-01-22T01:08:24.638Z,16.62
2023-01-22T01:08:56.033Z,16.61
2023-01-22T01:09:27.469Z,16.60
2023-01-22T01:09:58.870Z,16.60
2023-01-22T01:10:30.265Z,16.59
2023-01-22T01:11:01.707Z,16.59
2023-01-22T01:11:33.136Z,16.58
2023-01-22T01:12:04.561Z,16.59
2023-01-22T01:12:35.978Z,16.58
2023-01-22T01:13:07.381Z,16.58
2023-01-22T01:13:38.792Z,16.58
2023-01-22T01:14:10.257Z,16.57
2023-01-22T01:14:41.674Z,16.57
2023-01-22T01:15:13.077Z,16.57
2023-01-22T01:15:44.490Z,16.57
2023-01-22T01:16:16.075Z,16.57
2023-01-22T01:16:47.494Z,16.57
2023-01-22T01:17:18.895Z,16.56
2023-01-22T01:17:50.292Z,16.57
2023-01-22T01:18:21.687Z,16.56
2023-01-22T01:18:53.212Z,16.55
2023-01-22T01:19:24.628Z,16.54
2023-01-22T01:19:56.058Z,16.55
2023-01-22T01:20:27.451Z,16.54
2023-01-22T01:20:58.846Z,16.53
2023-01-22T01:21:30.233Z,16.53
2023-01-22T01:22:01.635Z,16.54
2023-01-22T01:22:33.089Z,16.54
2023-01-22T01:23:04.504Z,16.54
2023-01-22T01:23:35.902Z,16.53
2023-01-22T01:24:07.339Z,16.51
2023-01-22T01:24:38.759Z,16.52
2023-01-22T01:25:10.210Z,16.52
2023-01-22T01:25:41.618Z,16.51
2023-01-22T01:26:13.019Z,16.52
2023-01-22T01:26:44.416Z,16.51
2023-01-22T01:27:15.814Z,16.51
2023-01-22T01:27:47.231Z,16.50
2023-01-22T01:28:18.648Z,16.51
2023-01-22T01:28:50.047Z,16.51
2023-01-22T01:29:21.453Z,16.49
2023-01-22T01:29:52.867Z,16.48
2023-01-22T01:30:24.318Z,16.48
2023-01-22T01:30:55.810Z,16.47
2023-01-22T01:31:27.355Z,16.48
2023-01-22T01:31:58.859Z,16.47
2023-01-22T01:32:30.321Z,16.47
2023-01-22T01:33:01.748Z,16.47
2023-01-22T01:33:33.153Z,16.45
2023-01-22T01:34:04.577Z,16.46
2023-01-22T01:34:35.985Z,16.46
2023-01-22T01:35:07.386Z,16.46
2023-01-22T01:35:38.807Z,16.44
2023-01-22T01:36:10.210Z,16.44
2023-01-22T01:36:49.698Z,16.45
2023-01-22T01:37:21.269Z,16.44
2023-01-22T01:37:52.678Z,16.44
2023-01-22T01:38:24.070Z,16.44
2023-01-22T01:38:55.550Z,16.43
2023-01-22T01:39:26.987Z,16.42
2023-01-22T01:39:58.412Z,16.42
2023-01-22T01:40:29.812Z,16.41
2023-01-22T01:41:01.227Z,16.41
2023-01-22T01:41:32.619Z,16.42
2023-01-22T01:42:04.014Z,16.42
2023-01-22T01:42:35.417Z,16.42
2023-01-22T01:43:06.847Z,16.42
2023-01-22T01:43:38.246Z,16.42
2023-01-22T01:44:09.653Z,16.41
2023-01-22T01:44:41.056Z,16.42
2023-01-22T01:45:12.450Z,16.41
2023-01-22T01:45:43.904Z,16.41
2023-01-22T01:46:15.360Z,16.41
2023-01-22T01:46:46.890Z,16.40
2023-01-22T01:47:18.342Z,16.40
2023-01-22T01:47:49.765Z,16.39
2023-01-22T01:48:21.189Z,16.40
2023-01-22T01:48:52.609Z,16.40
2023-01-22T01:49:24.017Z,16.39
2023-01-22T01:49:55.439Z,16.38
2023-01-22T01:50:26.863Z,16.38
2023-01-22T01:50:58.312Z,16.37
2023-01-22T01:51:29.776Z,16.38
2023-01-22T01:52:01.194Z,16.37
2023-01-22T01:52:32.613Z,16.38
2023-01-22T01:53:04.030Z,16.38
2023-01-22T01:53:35.429Z,16.38
2023-01-22T01:54:06.841Z,16.37
2023-01-22T01:54:38.258Z,16.37
2023-01-22T01:55:09.656Z,16.37
2023-01-22T01:55:41.086Z,16.37
2023-01-22T01:56:12.539Z,16.36
2023-01-22T01:56:43.964Z,16.35
2023-01-22T01:57:15.413Z,16.35
2023-01-22T01:57:46.811Z,16.35
2023-01-22T01:58:18.243Z,16.35
2023-01-22T01:58:49.647Z,16.35
2023-01-22T01:59:21.049Z,16.34
2023-01-22T01:59:52.452Z,16.34
2023-01-22T02:00:23.846Z,16.34
2023-01-22T02:00:55.307Z,16.33
2023-01-22T02:01:26.764Z,16.34
2023-01-22T02:01:58.182Z,16.32
2023-01-22T02:02:29.609Z,16.32
2023-01-22T02:03:01.030Z,16.33
2023-01-22T02:03:32.432Z,16.33
2023-01-22T02:04:03.855Z,16.32
2023-01-22T02:04:35.254Z,16.32
2023-01-22T02:05:06.659Z,16.32
2023-01-22T02:05:38.060Z,16.32
2023-01-22T02:06:09.459Z,16.31
2023-01-22T02:06:40.888Z,16.32
2023-01-22T02:07:12.282Z,16.31
2023-01-22T02:07:43.718Z,16.31
2023-01-22T02:08:15.121Z,16.31
2023-01-22T02:08:46.523Z,16.31
2023-01-22T02:09:17.951Z,16.31
2023-01-22T02:09:49.376Z,16.30
2023-01-22T02:10:20.780Z,16.29
2023-01-22T02:10:52.181Z,16.29
2023-01-22T02:11:23.598Z,16.29
2023-01-22T02:11:55.002Z,16.30
2023-01-22T02:12:26.494Z,16.29
2023-01-22T02:12:57.938Z,16.27
2023-01-22T02:13:29.358Z,16.28
2023-01-22T02:14:00.783Z,16.27
2023-01-22T02:14:32.212Z,16.28
2023-01-22T02:15:03.616Z,16.27
2023-01-22T02:15:35.018Z,16.27
2023-01-22T02:16:06.506Z,16.26
2023-01-22T02:16:37.984Z,16.26
2023-01-22T02:17:09.442Z,16.26
2023-01-22T02:17:40.861Z,16.25
2023-01-22T02:18:12.301Z,16.26
2023-01-22T02:18:43.699Z,16.26
2023-01-22T02:19:15.119Z,16.25
2023-01-22T02:19:46.514Z,16.24
2023-01-22T02:20:18.209Z,16.24
2023-01-22T02:20:49.738Z,16.23
2023-01-22T02:21:21.153Z,16.24
2023-01-22T02:21:52.589Z,16.23
2023-01-22T02:22:24.022Z,16.22
2023-01-22T02:22:55.418Z,16.21
2023-01-22T02:23:26.859Z,16.22
2023-01-22T02:23:58.262Z,16.20
2023-01-22T02:24:29.688Z,16.22
2023-01-22T02:25:01.112Z,16.20
2023-01-22T02:25:32.512Z,16.19
2023-01-22T02:26:03.936Z,16.21
2023-01-22T02:26:35.374Z,16.18
2023-01-22T02:27:06.802Z,16.19
2023-01-22T02:27:38.209Z,16.18
2023-01-22T02:28:09.609Z,16.18
2023-01-22T02:28:41.037Z,16.16
2023-01-22T02:29:12.435Z,16.17
2023-01-22T02:29:43.850Z,16.17
2023-01-22T02:30:15.399Z,16.17
2023-01-22T02:30:46.890Z,16.17
2023-01-22T02:31:18.331Z,16.16
2023-01-22T02:31:49.801Z,16.15
2023-01-22T02:32:21.236Z,16.15
2023-01-22T02:32:52.639Z,16.15
2023-01-22T02:33:24.054Z,16.14
2023-01-22T02:33:55.513Z,16.14
2023-01-22T02:34:26.915Z,16.15
2023-01-22T02:34:58.321Z,16.06
2023-01-22T02:35:29.722Z,16.09
2023-01-22T02:36:01.115Z,16.11
2023-01-22T02:36:32.532Z,16.10
2023-01-22T02:37:03.960Z,16.12
2023-01-22T02:37:35.366Z,16.12
2023-01-22T02:38:06.779Z,16.12
2023-01-22T02:38:38.195Z,16.10
2023-01-22T02:39:09.641Z,16.12
2023-01-22T02:39:41.046Z,16.10
2023-01-22T02:40:12.460Z,16.09
2023-01-22T02:40:43.869Z,16.10
2023-01-22T02:41:15.271Z,16.09
2023-01-22T02:41:46.711Z,16.09
2023-01-22T02:42:18.115Z,16.10
2023-01-22T02:42:49.510Z,16.10
2023-01-22T02:43:20.926Z,16.09
2023-01-22T02:43:52.336Z,16.09
2023-01-22T02:44:23.785Z,16.10
2023-01-22T02:44:55.189Z,16.09
2023-01-22T02:45:26.642Z,16.09
2023-01-22T02:45:58.091Z,16.09
2023-01-22T02:46:29.523Z,16.09
2023-01-22T02:47:00.920Z,16.06
2023-01-22T02:47:32.321Z,16.06
2023-01-22T02:48:03.721Z,16.07
2023-01-22T02:48:35.135Z,16.06
2023-01-22T02:49:06.528Z,16.06
2023-01-22T02:49:37.984Z,16.06
2023-01-22T02:50:09.399Z,16.03
2023-01-22T02:50:40.813Z,16.04
2023-01-22T02:51:12.371Z,16.03
2023-01-22T02:51:43.793Z,16.03
2023-01-22T02:52:15.192Z,16.02
2023-01-22T02:52:46.621Z,16.02
2023-01-22T02:53:18.050Z,16.01
2023-01-22T02:53:49.443Z,16.02
2023-01-22T02:54:20.860Z,16.00
2023-01-22T02:54:52.308Z,16.00
2023-01-22T02:55:23.726Z,16.00
2023-01-22T02:55:55.122Z,16.01
2023-01-22T02:56:26.532Z,16.00
2023-01-22T02:56:57.983Z,16.00
2023-01-22T02:57:29.423Z,16.00
2023-01-22T02:58:00.829Z,16.00
2023-01-22T02:58:32.230Z,15.98
2023-01-22T02:59:03.625Z,16.00
2023-01-22T02:59:35.047Z,15.99
2023-01-22T03:00:06.452Z,15.99
2023-01-22T03:00:37.857Z,15.98
2023-01-22T03:01:09.393Z,15.96
2023-01-22T03:01:40.832Z,15.94
2023-01-22T03:02:12.277Z,15.96
2023-01-22T03:02:43.740Z,15.96
2023-01-22T03:03:15.179Z,15.96
2023-01-22T03:03:46.597Z,15.95
2023-01-22T03:04:18.005Z,15.94
2023-01-22T03:04:49.421Z,15.95
2023-01-22T03:05:20.816Z,15.94
2023-01-22T03:05:52.304Z,15.93
2023-01-22T03:06:23.712Z,15.93
2023-01-22T03:06:55.113Z,15.93
2023-01-22T03:07:26.536Z,15.92
2023-01-22T03:07:57.951Z,15.94
2023-01-22T03:08:29.365Z,15.92
2023-01-22T03:09:00.817Z,15.92
2023-01-22T03:09:32.209Z,15.92
2023-01-22T03:10:03.625Z,15.89
2023-01-22T03:10:35.047Z,15.88
2023-01-22T03:11:06.472Z,15.90
2023-01-22T03:11:37.915Z,15.89
2023-01-22T03:12:09.379Z,15.89
2023-01-22T03:12:40.789Z,15.90
2023-01-22T03:13:12.185Z,15.89
2023-01-22T03:13:43.583Z,15.89
2023-01-22T03:14:15.036Z,15.87
2023-01-22T03:14:46.433Z,15.88
2023-01-22T03:15:17.852Z,15.86
2023-01-22T03:15:49.256Z,15.87
2023-01-22T03:16:20.691Z,15.86
2023-01-22T03:16:52.114Z,15.86
2023-01-22T03:17:23.524Z,15.87
2023-01-22T03:17:54.925Z,15.86
2023-01-22T03:18:26.350Z,15.85
2023-01-22T03:18:57.775Z,15.85
2023-01-22T03:19:29.238Z,15.85
2023-01-22T03:20:00.651Z,15.85
2023-01-22T03:20:32.069Z,15.84
2023-01-22T03:21:03.494Z,15.84
2023-01-22T03:21:35.037Z,15.84
2023-01-22T03:22:06.454Z,15.83
2023-01-22T03:22:37.860Z,15.82
2023-01-22T03:23:09.277Z,15.83
2023-01-22T03:23:40.691Z,15.83
2023-01-22T03:24:12.136Z,15.81
2023-01-22T03:24:43.579Z,15.83
2023-01-22T03:25:14.985Z,15.82
2023-01-22T03:25:46.398Z,15.81
2023-01-22T03:26:17.807Z,15.82
2023-01-22T03:26:49.251Z,15.81
2023-01-22T03:27:20.876Z,15.81
2023-01-22T03:27:52.326Z,15.80
2023-01-22T03:28:23.727Z,15.81
2023-01-22T03:28:55.125Z,15.80
2023-01-22T03:29:26.516Z,15.79
2023-01-22T03:29:57.947Z,15.79
2023-01-22T03:30:29.348Z,15.78
2023-01-22T03:31:00.778Z,15.79
2023-01-22T03:31:32.251Z,15.77
2023-01-22T03:32:03.765Z,15.76
2023-01-22T03:32:35.202Z,15.79
2023-01-22T03:33:06.616Z,15.78
2023-01-22T03:33:38.017Z,15.75
2023-01-22T03:34:09.429Z,15.78
2023-01-22T03:34:40.832Z,15.75
2023-01-22T03:35:12.309Z,15.75
2023-01-22T03:35:43.713Z,15.74
2023-01-22T03:36:15.117Z,15.75
2023-01-22T03:36:46.506Z,15.74
2023-01-22T03:37:17.914Z,15.73
2023-01-22T03:37:49.305Z,15.73
2023-01-22T03:38:20.723Z,15.73
2023-01-22T03:38:52.140Z,15.74
2023-01-22T03:39:23.555Z,15.73
2023-01-22T03:39:54.963Z,15.73
2023-01-22T03:40:26.415Z,15.73
2023-01-22T03:40:57.827Z,15.73
2023-01-22T03:41:29.236Z,15.72
2023-01-22T03:42:00.640Z,15.71
2023-01-22T03:42:32.046Z,15.71
2023-01-22T03:43:03.449Z,15.67
2023-01-22T03:43:34.843Z,15.68
2023-01-22T03:44:06.295Z,15.70
2023-01-22T03:44:37.713Z,15.71
2023-01-22T03:45:09.129Z,15.69
2023-01-22T03:45:40.595Z,15.69
2023-01-22T03:46:12.114Z,15.69
2023-01-22T03:46:43.569Z,15.68
2023-01-22T03:47:15.183Z,15.69
2023-01-22T03:47:46.635Z,15.68
2023-01-22T03:48:18.050Z,15.67
2023-01-22T03:48:49.475Z,15.68
2023-01-22T03:49:20.875Z,15.68
2023-01-22T03:49:52.288Z,15.67
2023-01-22T03:50:23.675Z,15.64
2023-01-22T03:50:55.113Z,15.65
2023-01-22T03:51:26.534Z,15.65
2023-01-22T03:51:57.974Z,15.64
2023-01-22T03:52:29.405Z,15.62
2023-01-22T03:53:00.810Z,15.61
2023-01-22T03:53:32.224Z,15.61
2023-01-22T03:54:03.639Z,15.61
2023-01-22T03:54:35.039Z,15.61
2023-01-22T03:55:06.435Z,15.60
2023-01-22T03:55:37.846Z,15.60
2023-01-22T03:56:09.406Z,15.59
2023-01-22T03:56:40.800Z,15.58
2023-01-22T03:57:12.198Z,15.59
2023-01-22T03:57:43.592Z,15.59
2023-01-22T03:58:14.994Z,15.57
2023-01-22T03:58:46.393Z,15.57
2023-01-22T03:59:17.788Z,15.57
2023-01-22T03:59:49.196Z,15.57
2023-01-22T04:00:20.852Z,15.57
2023-01-22T04:00:52.456Z,15.56
2023-01-22T04:01:23.960Z,15.58
2023-01-22T04:01:55.409Z,15.57
2023-01-22T04:02:26.884Z,15.55
2023-01-22T04:02:58.341Z,15.56
2023-01-22T04:03:29.748Z,15.55
2023-01-22T04:04:01.145Z,15.54
2023-01-22T04:04:32.548Z,15.55
2023-01-22T04:05:03.963Z,15.55
2023-01-22T04:05:35.379Z,15.55
2023-01-22T04:06:06.775Z,15.54
2023-01-22T04:06:38.196Z,15.54
2023-01-22T04:07:09.601Z,15.54
2023-01-22T04:07:41.021Z,15.53
2023-01-22T04:08:12.415Z,15.52
2023-01-22T04:08:44.025Z,15.53
2023-01-22T04:09:15.428Z,15.52
2023-01-22T04:09:46.844Z,15.53
2023-01-22T04:10:18.512Z,15.51
2023-01-22T04:10:50.062Z,15.51
2023-01-22T04:11:21.496Z,15.51
2023-01-22T04:11:52.923Z,15.51
2023-01-22T04:12:24.332Z,15.52
2023-01-22T04:12:55.733Z,15.51
2023-01-22T04:13:27.234Z,15.49
2023-01-22T04:13:58.629Z,15.49
2023-01-22T04:14:30.046Z,15.49
2023-01-22T04:15:01.437Z,15.49
2023-01-22T04:15:32.833Z,15.48
2023-01-22T04:16:04.230Z,15.48
2023-01-22T04:16:35.659Z,15.46
2023-01-22T04:17:07.138Z,15.46
2023-01-22T04:17:38.549Z,15.46
2023-01-22T04:18:09.958Z,15.44
2023-01-22T04:18:41.365Z,15.44
2023-01-22T04:19:12.781Z,15.45
2023-01-22T04:19:44.187Z,15.45
2023-01-22T04:20:15.758Z,15.46
2023-01-22T04:20:47.306Z,15.44
2023-01-22T04:21:18.718Z,15.43
2023-01-22T04:21:50.135Z,15.44
2023-01-22T04:22:21.594Z,15.44
2023-01-22T04:22:52.990Z,15.43
2023-01-22T04:23:24.388Z,15.43
2023-01-22T04:23:55.791Z,15.43
2023-01-22T04:24:27.221Z,15.42
2023-01-22T04:24:58.607Z,15.43
2023-01-22T04:25:30.007Z,15.41
2023-01-22T04:26:01.423Z,15.42
2023-01-22T04:26:32.834Z,15.42
2023-01-22T04:27:04.237Z,15.41
2023-01-22T04:27:35.678Z,15.41
2023-01-22T04:28:07.076Z,15.41
2023-01-22T04:28:38.489Z,15.40
2023-01-22T04:29:09.886Z,15.39
2023-01-22T04:29:41.306Z,15.37
2023-01-22T04:30:12.731Z,15.37
2023-01-22T04:30:44.186Z,15.39
2023-01-22T04:31:15.699Z,15.37
2023-01-22T04:31:47.209Z,15.36
2023-01-22T04:32:18.660Z,15.35
2023-01-22T04:32:50.090Z,15.35
2023-01-22T04:33:21.485Z,15.33
2023-01-22T04:33:52.904Z,15.31
2023-01-22T04:34:24.306Z,15.31
2023-01-22T04:34:55.694Z,15.31
2023-01-22T04:35:27.102Z,15.31
2023-01-22T04:35:58.550Z,15.32
2023-01-22T04:36:29.969Z,15.29
2023-01-22T04:37:01.388Z,15.29
2023-01-22T04:37:32.783Z,15.28
2023-01-22T04:38:04.235Z,15.28
2023-01-22T04:38:35.635Z,15.26
2023-01-22T04:39:07.035Z,15.27
2023-01-22T04:39:38.523Z,15.25
2023-01-22T04:40:09.946Z,15.26
2023-01-22T04:40:41.344Z,15.25
2023-01-22T04:41:12.750Z,15.22
2023-01-22T04:41:44.145Z,15.24
2023-01-22T04:42:15.551Z,15.23
2023-01-22T04:42:46.965Z,15.21
2023-01-22T04:43:18.427Z,15.18
2023-01-22T04:43:49.879Z,15.20
2023-01-22T04:44:21.271Z,15.18
2023-01-22T04:44:52.666Z,15.19
2023-01-22T04:45:24.062Z,15.18
2023-01-22T04:45:55.500Z,15.19
2023-01-22T04:46:26.962Z,15.16
2023-01-22T04:46:58.394Z,15.19
2023-01-22T04:47:29.815Z,15.19
2023-01-22T04:48:01.225Z,15.19
2023-01-22T04:48:32.654Z,15.20
2023-01-22T04:49:04.058Z,15.18
2023-01-22T04:49:35.486Z,15.20
2023-01-22T04:50:06.907Z,15.18
2023-01-22T04:50:38.325Z,15.19
2023-01-22T04:51:09.756Z,15.19
2023-01-22T04:51:41.201Z,15.18
2023-01-22T04:52:12.590Z,15.18
2023-01-22T04:52:43.991Z,15.17
2023-01-22T04:53:15.399Z,15.17
2023-01-22T04:53:47.008Z,15.17
2023-01-22T04:54:18.436Z,15.16
2023-01-22T04:54:49.854Z,15.16
2023-01-22T04:55:21.256Z,15.16
2023-01-22T04:55:52.674Z,15.16
2023-01-22T04:56:24.071Z,15.15
2023-01-22T04:56:55.470Z,15.15
2023-01-22T04:57:26.893Z,15.15
2023-01-22T04:57:58.300Z,15.15
2023-01-22T04:58:29.707Z,15.15
2023-01-22T04:59:01.140Z,15.14
2023-01-22T04:59:32.554Z,15.14
2023-01-22T05:00:03.966Z,15.14
2023-01-22T05:00:35.404Z,15.14
2023-01-22T05:01:06.836Z,15.12
2023-01-22T05:01:38.331Z,15.12
2023-01-22T05:02:09.780Z,15.12
2023-01-22T05:02:41.284Z,15.12
2023-01-22T05:03:12.748Z,15.12
2023-01-22T05:03:44.147Z,15.09
2023-01-22T05:04:15.587Z,15.11
2023-01-22T05:04:47.008Z,15.10
2023-01-22T05:05:18.443Z,15.09
2023-01-22T05:05:49.862Z,15.09
2023-01-22T05:06:21.252Z,15.08
2023-01-22T05:06:52.675Z,15.08
2023-01-22T05:07:24.068Z,15.08
2023-01-22T05:07:55.464Z,15.05
2023-01-22T05:08:26.853Z,15.06
2023-01-22T05:08:58.253Z,15.05
2023-01-22T05:09:29.707Z,15.03
2023-01-22T05:10:01.121Z,15.04
2023-01-22T05:10:32.527Z,15.03
2023-01-22T05:11:04.011Z,15.02
2023-01-22T05:11:35.437Z,15.02
2023-01-22T05:12:06.833Z,15.01
2023-01-22T05:12:38.228Z,15.00
2023-01-22T05:13:09.653Z,15.00
2023-01-22T05:13:41.059Z,15.00
2023-01-22T05:14:12.476Z,14.98
2023-01-22T05:14:43.907Z,14.97
2023-01-22T05:15:23.969Z,14.98
2023-01-22T05:15:56.093Z,14.95
2023-01-22T05:16:27.565Z,14.94
2023-01-22T05:16:58.967Z,14.93
2023-01-22T05:17:30.381Z,14.95
2023-01-22T05:18:01.797Z,14.94
2023-01-22T05:18:33.466Z,14.93
2023-01-22T05:19:04.864Z,14.94
2023-01-22T05:19:36.277Z,14.93
2023-01-22T05:20:07.726Z,14.93
2023-01-22T05:20:39.165Z,14.93
2023-01-22T05:21:10.563Z,14.93
2023-01-22T05:21:41.986Z,14.92
2023-01-22T05:22:13.382Z,14.93
2023-01-22T05:22:44.782Z,14.90
2023-01-22T05:23:16.205Z,14.91
2023-01-22T05:23:47.598Z,14.90
2023-01-22T05:24:19.009Z,14.90
2023-01-22T05:24:50.422Z,14.89
2023-01-22T05:25:21.827Z,14.90
2023-01-22T05:25:53.257Z,14.88
2023-01-22T05:26:24.670Z,14.88
2023-01-22T05:26:56.068Z,14.87
2023-01-22T05:27:27.471Z,14.87
2023-01-22T05:27:58.867Z,14.87
2023-01-22T05:28:30.278Z,14.87
2023-01-22T05:29:01.674Z,14.88
2023-01-22T05:29:33.084Z,14.86
2023-01-22T05:30:04.487Z,14.87
2023-01-22T05:30:35.935Z,14.88
2023-01-22T05:31:07.501Z,14.88
2023-01-22T05:31:38.962Z,14.87
2023-01-22T05:32:10.531Z,14.87
2023-01-22T05:32:41.945Z,14.88
2023-01-22T05:33:13.342Z,14.87
2023-01-22T05:33:44.739Z,14.87
2023-01-22T05:34:16.135Z,14.88
2023-01-22T05:34:47.525Z,14.88
2023-01-22T05:35:18.923Z,14.88
2023-01-22T05:35:50.322Z,14.88
2023-01-22T05:36:21.711Z,14.88
2023-01-22T05:36:53.126Z,14.89
2023-01-22T05:37:24.550Z,14.89
2023-01-22T05:37:55.944Z,14.89
2023-01-22T05:38:27.359Z,14.88
2023-01-22T05:38:58.778Z,14.88
2023-01-22T05:39:30.186Z,14.89
2023-01-22T05:40:01.614Z,14.89
2023-01-22T05:40:33.003Z,14.90
2023-01-22T05:41:04.403Z,14.89
2023-01-22T05:41:35.794Z,14.91
2023-01-22T05:42:07.213Z,14.90
2023-01-22T05:42:38.630Z,14.89
2023-01-22T05:43:10.047Z,14.89
2023-01-22T05:43:41.444Z,14.89
2023-01-22T05:44:12.871Z,14.90
2023-01-22T05:44:44.317Z,14.89
2023-01-22T05:45:15.713Z,14.90
2023-01-22T05:45:47.109Z,14.90
2023-01-22T05:46:18.597Z,14.89
2023-01-22T05:46:50.025Z,14.89
2023-01-22T05:47:21.448Z,14.89
2023-01-22T05:47:52.901Z,14.90
2023-01-22T05:48:24.305Z,14.89
2023-01-22T05:48:55.706Z,14.90
2023-01-22T05:49:27.137Z,14.89
2023-01-22T05:49:58.555Z,14.89
2023-01-22T05:50:29.965Z,14.90
2023-01-22T05:51:01.408Z,14.89
2023-01-22T05:51:32.830Z,14.89
2023-01-22T05:52:04.217Z,14.89
2023-01-22T05:52:35.646Z,14.88
2023-01-22T05:53:07.083Z,14.88
2023-01-22T05:53:38.497Z,14.89
2023-01-22T05:54:09.939Z,14.88
2023-01-22T05:54:41.382Z,14.87
2023-01-22T05:55:12.775Z,14.88
2023-01-22T05:55:44.164Z,14.88
2023-01-22T05:56:15.577Z,14.87
2023-01-22T05:56:46.978Z,14.87
2023-01-22T05:57:18.394Z,14.85
2023-01-22T05:57:49.810Z,14.85
2023-01-22T05:58:21.253Z,14.85
2023-01-22T05:58:52.649Z,14.86
2023-01-22T05:59:24.046Z,14.86
2023-01-22T05:59:55.433Z,14.86
2023-01-22T06:00:26.856Z,14.86
2023-01-22T06:00:58.251Z,14.85
2023-01-22T06:01:29.669Z,14.87
2023-01-22T06:02:01.088Z,14.85
2023-01-22T06:02:32.558Z,14.85
2023-01-22T06:03:04.041Z,14.84
2023-01-22T06:03:35.483Z,14.85
2023-01-22T06:04:06.926Z,14.85
2023-01-22T06:04:38.328Z,14.84
2023-01-22T06:05:09.757Z,14.84
2023-01-22T06:05:41.170Z,14.84
2023-01-22T06:06:12.568Z,14.83
2023-01-22T06:06:43.970Z,14.84
2023-01-22T06:07:15.381Z,14.85
2023-01-22T06:07:46.799Z,14.84
2023-01-22T06:08:18.197Z,14.84
2023-01-22T06:08:49.645Z,14.84
2023-01-22T06:09:21.031Z,14.84
2023-01-22T06:09:52.470Z,14.84
2023-01-22T06:10:23.873Z,14.84
2023-01-22T06:10:55.288Z,14.85
2023-01-22T06:11:26.709Z,14.85
2023-01-22T06:11:58.104Z,14.85
2023-01-22T06:12:29.520Z,14.84
2023-01-22T06:13:00.920Z,14.85
2023-01-22T06:13:32.336Z,14.86
2023-01-22T06:14:03.760Z,14.85
2023-01-22T06:14:35.170Z,14.85
2023-01-22T06:15:06.610Z,14.87
2023-01-22T06:15:38.087Z,14.86
2023-01-22T06:16:09.578Z,14.87
2023-01-22T06:16:41.002Z,14.87
2023-01-22T06:17:12.408Z,14.87
2023-01-22T06:17:43.798Z,14.86
2023-01-22T06:18:15.218Z,14.87
2023-01-22T06:18:46.632Z,14.87
2023-01-22T06:19:18.035Z,14.87
2023-01-22T06:19:49.434Z,14.88
2023-01-22T06:20:20.879Z,14.87
2023-01-22T06:20:52.288Z,14.88
2023-01-22T06:21:23.686Z,14.88
2023-01-22T06:21:55.105Z,14.89
2023-01-22T06:22:26.512Z,14.90
2023-01-22T06:22:57.915Z,14.90
2023-01-22T06:23:29.310Z,14.92
2023-01-22T06:24:00.725Z,14.93
2023-01-22T06:24:32.169Z,14.93
2023-01-22T06:25:03.586Z,14.94
2023-01-22T06:25:35.032Z,14.95
2023-01-22T06:26:06.456Z,14.94
2023-01-22T06:26:37.881Z,14.95
2023-01-22T06:27:09.278Z,14.96
2023-01-22T06:27:40.681Z,14.94
2023-01-22T06:28:12.116Z,14.96
2023-01-22T06:28:43.544Z,14.96
2023-01-22T06:29:14.962Z,14.97
2023-01-22T06:29:46.411Z,14.98
2023-01-22T06:30:18.104Z,14.97
2023-01-22T06:30:49.734Z,14.98
2023-01-22T06:31:21.226Z,14.97
2023-01-22T06:31:52.761Z,14.98
2023-01-22T06:32:24.206Z,14.99
2023-01-22T06:32:55.609Z,15.00
2023-01-22T06:33:27.032Z,15.00
2023-01-22T06:33:58.454Z,15.00
2023-01-22T06:34:29.880Z,15.01
2023-01-22T06:35:01.308Z,15.01
2023-01-22T06:35:32.702Z,15.02
2023-01-22T06:36:04.126Z,15.03
2023-01-22T06:36:35.545Z,15.02
2023-01-22T06:37:06.961Z,15.03
2023-01-22T06:37:38.361Z,15.02
2023-01-22T06:38:09.763Z,15.02
2023-01-22T06:38:41.162Z,15.03
2023-01-22T06:39:12.579Z,15.05
2023-01-22T06:39:43.982Z,15.03
2023-01-22T06:40:15.593Z,15.04
2023-01-22T06:40:47.079Z,15.05
2023-01-22T06:41:18.474Z,15.05
2023-01-22T06:41:49.886Z,15.06
2023-01-22T06:42:21.326Z,15.05
2023-01-22T06:42:52.744Z,15.05
2023-01-22T06:43:24.164Z,15.07
2023-01-22T06:43:55.576Z,15.06
2023-01-22T06:44:27.011Z,15.07
2023-01-22T06:44:58.423Z,15.07